createdAt,value
2023-07-28T00:01:58.789Z,3.55
2023-07-28T00:04:25.598Z,5.07
2023-07-28T00:06:52.456Z,5.80
2023-07-28T00:09:19.320Z,6.35
2023-07-28T00:11:46.075Z,4.32
2023-07-28T00:14:12.989Z,3.60
2023-07-28T00:16:41.337Z,3.83
2023-07-28T00:19:08.171Z,3.60
2023-07-28T00:21:34.962Z,3.50
2023-07-28T00:24:01.783Z,4.60
2023-07-28T00:26:28.528Z,4.00
2023-07-28T00:28:55.360Z,4.28
2023-07-28T00:31:22.162Z,3.47
2023-07-28T00:33:50.279Z,4.15
2023-07-28T00:36:17.108Z,3.58
2023-07-28T00:38:43.954Z,3.88
2023-07-28T00:41:10.732Z,4.95
2023-07-28T00:43:37.822Z,3.55
2023-07-28T00:46:04.779Z,3.80
2023-07-28T00:48:31.974Z,3.70
2023-07-28T00:51:00.239Z,4.15
2023-07-28T00:53:27.488Z,5.78
2023-07-28T00:55:54.641Z,3.22
2023-07-28T00:58:22.099Z,3.30
2023-07-28T01:00:49.116Z,3.55
2023-07-28T01:03:16.882Z,4.25
2023-07-28T01:05:52.214Z,4.80
2023-07-28T01:08:28.118Z,4.70
2023-07-28T01:10:55.009Z,3.63
2023-07-28T01:13:21.853Z,4.45
2023-07-28T01:15:48.692Z,2.85
2023-07-28T01:18:15.575Z,3.55
2023-07-28T01:20:43.548Z,5.60
2023-07-28T01:23:19.280Z,4.45
2023-07-28T01:26:03.668Z,4.85
2023-07-28T01:28:32.867Z,4.05
2023-07-28T01:31:00.771Z,5.55
2023-07-28T01:33:27.675Z,4.63
2023-07-28T01:35:54.504Z,4.25
2023-07-28T01:38:21.336Z,3.50
2023-07-28T01:40:48.076Z,3.70
2023-07-28T01:43:14.962Z,2.85
2023-07-28T01:45:43.153Z,3.15
2023-07-28T01:48:10.029Z,4.07
2023-07-28T01:50:36.864Z,4.28
2023-07-28T01:53:04.696Z,6.55
2023-07-28T01:55:31.516Z,3.20
2023-07-28T01:58:00.871Z,4.68
2023-07-28T02:00:27.981Z,3.28
2023-07-28T02:02:56.194Z,3.05
2023-07-28T02:05:23.049Z,3.60
2023-07-28T02:07:49.875Z,3.45
2023-07-28T02:10:16.795Z,3.60
2023-07-28T02:12:43.589Z,3.28
2023-07-28T02:15:11.569Z,3.70
2023-07-28T02:17:38.539Z,2.42
2023-07-28T02:20:08.295Z,2.80
2023-07-28T02:22:35.122Z,3.97
2023-07-28T02:25:01.890Z,5.20
2023-07-28T02:27:28.756Z,3.33
2023-07-28T02:29:55.633Z,8.68
2023-07-28T02:32:22.531Z,2.83
2023-07-28T02:34:49.522Z,3.13
2023-07-28T02:37:17.793Z,2.55
2023-07-28T02:39:44.668Z,4.07
2023-07-28T02:42:11.484Z,3.72
2023-07-28T02:44:38.305Z,3.28
2023-07-28T02:47:05.668Z,3.33
2023-07-28T02:49:32.463Z,3.85
2023-07-28T02:51:59.319Z,3.97
2023-07-28T02:54:27.456Z,5.22
2023-07-28T02:56:54.240Z,4.72
2023-07-28T02:59:23.062Z,2.80
2023-07-28T03:01:49.892Z,3.70
2023-07-28T03:04:16.981Z,3.65
2023-07-28T03:06:43.757Z,3.67
2023-07-28T03:09:10.583Z,2.92
2023-07-28T03:11:39.323Z,2.95
2023-07-28T03:14:06.125Z,4.05
2023-07-28T03:16:33.471Z,3.58
2023-07-28T03:19:00.612Z,4.85
2023-07-28T03:21:30.587Z,4.03
2023-07-28T03:23:57.364Z,3.00
2023-07-28T03:26:24.154Z,3.10
2023-07-28T03:28:52.297Z,3.03
2023-07-28T03:31:19.208Z,4.18
2023-07-28T03:33:46.043Z,5.47
2023-07-28T03:36:12.799Z,4.38
2023-07-28T03:38:39.601Z,3.85
2023-07-28T03:41:06.427Z,2.97
2023-07-28T03:43:33.268Z,3.03
2023-07-28T03:46:01.609Z,3.85
2023-07-28T03:48:28.440Z,3.45
2023-07-28T03:50:55.213Z,3.55
2023-07-28T03:53:21.968Z,3.25
2023-07-28T03:55:48.747Z,3.78
2023-07-28T03:58:15.524Z,3.58
2023-07-28T04:00:42.307Z,5.63
2023-07-28T04:03:10.441Z,4.55
2023-07-28T04:05:37.965Z,3.05
2023-07-28T04:08:05.302Z,3.40
2023-07-28T04:10:32.085Z,2.58
2023-07-28T04:12:58.927Z,3.45
2023-07-28T04:15:25.762Z,3.15
2023-07-28T04:17:52.656Z,2.63
2023-07-28T04:20:20.915Z,3.78
2023-07-28T04:22:48.145Z,3.95
2023-07-28T04:25:14.920Z,2.88
2023-07-28T04:27:41.808Z,3.83
2023-07-28T04:30:09.103Z,4.82
2023-07-28T04:32:35.981Z,3.58
2023-07-28T04:35:03.152Z,3.55
2023-07-28T04:37:31.318Z,3.40
2023-07-28T04:39:58.138Z,4.65
2023-07-28T04:42:25.025Z,4.55
2023-07-28T04:44:51.828Z,3.33
2023-07-28T04:47:18.649Z,7.28
2023-07-28T04:49:45.447Z,3.05
2023-07-28T04:52:12.752Z,3.72
2023-07-28T04:54:41.122Z,4.75
2023-07-28T04:57:08.006Z,6.20
2023-07-28T04:59:34.797Z,3.45
2023-07-28T05:02:01.574Z,3.88
2023-07-28T05:04:28.380Z,4.35
2023-07-28T05:06:55.298Z,4.55
2023-07-28T05:09:22.118Z,4.50
2023-07-28T05:11:50.272Z,4.78
2023-07-28T05:14:17.005Z,5.38
2023-07-28T05:16:43.867Z,3.90
2023-07-28T05:19:10.737Z,4.75
2023-07-28T05:21:37.796Z,5.63
2023-07-28T05:24:04.831Z,3.55
2023-07-28T05:26:31.751Z,5.43
2023-07-28T05:28:59.889Z,3.35
2023-07-28T05:31:26.766Z,3.20
2023-07-28T05:33:53.596Z,3.70
2023-07-28T05:36:20.498Z,3.30
2023-07-28T05:38:47.281Z,5.72
2023-07-28T05:41:14.043Z,4.15
2023-07-28T05:43:41.017Z,4.25
2023-07-28T05:46:09.345Z,4.97
2023-07-28T05:48:36.185Z,4.32
2023-07-28T05:51:03.096Z,3.53
2023-07-28T05:53:29.896Z,3.67
2023-07-28T05:55:56.662Z,4.97
2023-07-28T05:58:23.565Z,4.22
2023-07-28T06:00:50.391Z,4.22
2023-07-28T06:03:18.688Z,3.20
2023-07-28T06:05:45.619Z,3.92
2023-07-28T06:08:12.385Z,4.25
2023-07-28T06:10:39.564Z,6.50
2023-07-28T06:13:06.490Z,5.70
2023-07-28T06:15:34.063Z,4.75
2023-07-28T06:18:00.886Z,4.07
2023-07-28T06:20:29.237Z,3.90
2023-07-28T06:22:56.193Z,3.80
2023-07-28T06:25:23.029Z,4.50
2023-07-28T06:27:49.900Z,3.10
2023-07-28T06:30:16.785Z,3.17
2023-07-28T06:32:43.683Z,3.65
2023-07-28T06:35:10.551Z,3.58
2023-07-28T06:37:38.980Z,3.30
2023-07-28T06:40:07.094Z,4.45
2023-07-28T06:42:34.760Z,2.60
2023-07-28T06:45:01.797Z,3.28
2023-07-28T06:47:28.611Z,3.25
2023-07-28T06:49:55.440Z,4.35
2023-07-28T06:52:22.238Z,3.67
2023-07-28T06:54:50.479Z,4.25
2023-07-28T06:57:17.544Z,2.97
2023-07-28T06:59:44.445Z,4.20
2023-07-28T07:02:11.249Z,3.90
2023-07-28T07:04:38.169Z,2.58
2023-07-28T07:07:05.440Z,2.67
2023-07-28T07:09:32.431Z,4.30
2023-07-28T07:12:00.709Z,3.40
2023-07-28T07:14:27.615Z,4.38
2023-07-28T07:16:54.505Z,3.80
2023-07-28T07:19:21.292Z,4.97
2023-07-28T07:21:48.076Z,3.17
2023-07-28T07:24:14.920Z,2.85
2023-07-28T07:26:41.715Z,6.63
2023-07-28T07:29:10.110Z,3.53
2023-07-28T07:31:37.337Z,6.30
2023-07-28T07:34:04.315Z,3.42
2023-07-28T07:36:31.525Z,3.22
2023-07-28T07:38:58.775Z,4.45
2023-07-28T07:41:25.729Z,5.32
2023-07-28T07:43:54.709Z,3.20
2023-07-28T07:46:24.476Z,3.92
2023-07-28T07:48:51.768Z,3.15
2023-07-28T07:51:18.732Z,3.63
2023-07-28T07:53:45.596Z,2.80
2023-07-28T07:56:12.851Z,4.47
2023-07-28T07:58:39.977Z,3.33
2023-07-28T08:01:06.986Z,3.92
2023-07-28T08:03:43.620Z,3.58
2023-07-28T08:06:10.709Z,3.17
2023-07-28T08:08:37.515Z,3.63
2023-07-28T08:11:04.427Z,4.35
2023-07-28T08:13:31.288Z,3.08
2023-07-28T08:15:58.129Z,4.32
2023-07-28T08:18:25.010Z,4.40
2023-07-28T08:20:53.260Z,3.30
2023-07-28T08:23:20.014Z,3.15
2023-07-28T08:25:46.889Z,2.60
2023-07-28T08:28:13.672Z,3.15
2023-07-28T08:30:40.486Z,3.45
2023-07-28T08:33:07.314Z,3.97
2023-07-28T08:35:34.186Z,4.05
2023-07-28T08:38:02.346Z,2.80
2023-07-28T08:40:29.242Z,2.80
2023-07-28T08:42:56.145Z,4.03
2023-07-28T08:45:23.857Z,3.28
2023-07-28T08:47:50.723Z,2.97
2023-07-28T08:50:17.780Z,3.30
2023-07-28T08:52:44.593Z,2.47
2023-07-28T08:55:12.844Z,3.95
2023-07-28T08:57:39.703Z,2.83
2023-07-28T09:00:10.781Z,3.17
2023-07-28T09:02:37.807Z,4.18
2023-07-28T09:05:05.239Z,3.25
2023-07-28T09:07:35.417Z,2.75
2023-07-28T09:10:02.240Z,3.33
2023-07-28T09:12:32.726Z,4.40
2023-07-28T09:14:59.570Z,4.78
2023-07-28T09:17:26.419Z,2.25
2023-07-28T09:19:54.289Z,2.97
2023-07-28T09:22:21.645Z,5.22
2023-07-28T09:24:49.340Z,2.72
2023-07-28T09:27:23.261Z,2.83
2023-07-28T09:29:52.526Z,1.90
2023-07-28T09:32:28.462Z,4.60
2023-07-28T09:35:07.060Z,2.75
2023-07-28T09:37:35.416Z,2.92
2023-07-28T09:40:03.902Z,2.35
2023-07-28T09:42:31.106Z,3.33
2023-07-28T09:44:59.325Z,3.90
2023-07-28T09:47:26.715Z,3.13
2023-07-28T09:49:55.928Z,3.38
2023-07-28T09:52:25.546Z,2.60
2023-07-28T09:54:56.747Z,3.05
2023-07-28T09:57:26.313Z,3.67
2023-07-28T09:59:56.729Z,3.83
2023-07-28T10:02:25.437Z,3.58
2023-07-28T10:04:53.377Z,7.25
2023-07-28T10:07:20.527Z,3.30
2023-07-28T10:09:47.677Z,3.60
2023-07-28T10:12:19.672Z,3.80
2023-07-28T10:14:46.476Z,2.72
2023-07-28T10:17:17.525Z,2.80
2023-07-28T10:19:45.746Z,4.35
2023-07-28T10:22:13.323Z,2.63
2023-07-28T10:24:54.016Z,3.45
2023-07-28T10:27:31.416Z,2.78
2023-07-28T10:29:58.476Z,3.83
2023-07-28T10:32:27.245Z,3.75
2023-07-28T10:35:01.478Z,3.65
2023-07-28T10:37:28.288Z,2.72
2023-07-28T10:40:28.133Z,2.72
2023-07-28T10:42:55.735Z,3.65
2023-07-28T10:45:25.101Z,3.30
2023-07-28T10:47:53.281Z,4.63
2023-07-28T10:50:22.192Z,5.85
2023-07-28T10:52:49.029Z,3.67
2023-07-28T10:55:16.806Z,3.10
2023-07-28T10:57:44.506Z,3.55
2023-07-28T11:00:12.734Z,4.50
2023-07-28T11:02:42.611Z,3.08
2023-07-28T11:05:12.258Z,3.58
2023-07-28T11:07:43.039Z,2.80
2023-07-28T11:10:10.829Z,3.35
2023-07-28T11:12:40.734Z,3.00
2023-07-28T11:15:09.981Z,3.22
2023-07-28T11:17:37.883Z,3.13
2023-07-28T11:20:06.022Z,3.47
2023-07-28T11:22:32.921Z,2.70
2023-07-28T11:25:01.124Z,3.80
2023-07-28T11:27:29.143Z,3.42
2023-07-28T11:29:56.224Z,3.78
2023-07-28T11:32:23.055Z,2.78
2023-07-28T11:34:50.729Z,3.17
2023-07-28T11:37:18.202Z,8.13
2023-07-28T11:39:45.380Z,4.75
2023-07-28T11:42:14.709Z,3.10
2023-07-28T11:44:41.713Z,3.42
2023-07-28T11:47:09.239Z,2.83
2023-07-28T11:49:47.449Z,2.83
2023-07-28T11:52:14.486Z,3.95
2023-07-28T11:54:41.317Z,3.30
2023-07-28T11:57:09.318Z,4.53
2023-07-28T11:59:37.949Z,4.47
2023-07-28T12:07:10.069Z,3.60
2023-07-28T12:10:02.979Z,2.67
2023-07-28T12:13:32.119Z,3.42
2023-07-28T12:20:45.495Z,3.25
2023-07-28T12:25:42.438Z,3.17
2023-07-28T12:28:18.975Z,3.58
2023-07-28T12:30:47.628Z,3.38
2023-07-28T12:44:05.860Z,4.60
2023-07-28T12:48:31.182Z,4.82
2023-07-28T12:53:27.669Z,2.78
2023-07-28T13:03:25.344Z,4.40
2023-07-28T13:05:52.181Z,3.65
2023-07-28T13:08:19.091Z,3.20
2023-07-28T13:13:15.641Z,2.85
2023-07-28T13:15:42.605Z,4.45
2023-07-28T13:18:09.661Z,3.03
2023-07-28T13:20:37.887Z,3.90
2023-07-28T13:23:04.718Z,2.72
2023-07-28T13:25:31.504Z,3.25
2023-07-28T13:27:58.339Z,4.25
2023-07-28T13:30:25.948Z,4.38
2023-07-28T13:32:54.265Z,3.70
2023-07-28T13:35:21.106Z,2.85
2023-07-28T13:37:49.226Z,3.85
2023-07-28T13:40:15.946Z,3.20
2023-07-28T13:42:43.389Z,4.22
2023-07-28T13:45:10.905Z,4.28
2023-07-28T13:47:37.695Z,3.00
2023-07-28T13:50:05.033Z,3.35
2023-07-28T13:52:32.178Z,3.75
2023-07-28T13:57:30.183Z,3.75
2023-07-28T13:59:57.201Z,3.90
2023-07-28T14:02:24.379Z,2.60
2023-07-28T14:04:51.280Z,5.97
2023-07-28T14:07:18.146Z,5.18
2023-07-28T14:09:44.957Z,3.13
2023-07-28T14:12:13.162Z,4.95
2023-07-28T14:14:39.918Z,2.97
2023-07-28T14:17:06.868Z,3.63
2023-07-28T14:19:33.750Z,3.92
2023-07-28T14:22:00.550Z,5.18
2023-07-28T14:24:27.904Z,4.00
2023-07-28T14:26:56.591Z,3.65
2023-07-28T14:29:26.914Z,6.07
2023-07-28T14:31:54.009Z,3.28
2023-07-28T14:34:20.830Z,6.03
2023-07-28T14:39:13.651Z,3.78
2023-07-28T14:41:41.049Z,4.90
2023-07-28T14:44:08.433Z,5.80
2023-07-28T14:46:37.254Z,4.32
2023-07-28T14:49:04.290Z,4.03
2023-07-28T14:51:31.499Z,4.00
2023-07-28T14:53:58.786Z,4.60
2023-07-28T14:56:25.870Z,5.53
2023-07-28T14:58:52.962Z,3.70
2023-07-28T15:01:19.904Z,3.70
2023-07-28T15:03:48.373Z,3.53
2023-07-28T15:06:15.620Z,4.47
2023-07-28T15:08:42.732Z,5.80
2023-07-28T15:11:09.678Z,3.20
2023-07-28T15:13:36.647Z,2.60
2023-07-28T15:16:04.034Z,5.25
2023-07-28T15:18:31.152Z,2.80
2023-07-28T15:21:00.120Z,2.95
2023-07-28T15:23:27.399Z,4.03
2023-07-28T15:25:55.150Z,2.92
2023-07-28T15:28:22.630Z,2.90
2023-07-28T15:30:50.659Z,3.55
2023-07-28T15:33:18.889Z,2.60
2023-07-28T15:35:47.883Z,4.80
2023-07-28T15:38:16.382Z,3.45
2023-07-28T15:40:43.474Z,3.40
2023-07-28T15:43:10.685Z,3.50
2023-07-28T15:45:38.582Z,4.50
2023-07-28T15:48:05.784Z,4.00
2023-07-28T15:50:33.503Z,3.92
2023-07-28T15:53:00.972Z,4.57
2023-07-28T15:55:29.576Z,5.03
2023-07-28T15:57:56.590Z,3.38
2023-07-28T16:00:23.660Z,3.42
2023-07-28T16:02:55.855Z,4.53
2023-07-28T16:05:22.785Z,3.17
2023-07-28T16:07:54.381Z,3.17
2023-07-28T16:10:21.586Z,4.85
2023-07-28T16:12:50.029Z,3.20
2023-07-28T16:15:17.028Z,5.28
2023-07-28T16:17:43.996Z,3.28
2023-07-28T16:20:11.966Z,3.75
2023-07-28T16:22:38.936Z,5.53
2023-07-28T16:25:10.771Z,3.90
2023-07-28T16:27:37.802Z,4.10
2023-07-28T16:30:08.397Z,2.47
2023-07-28T16:32:36.173Z,2.88
2023-07-28T16:35:04.018Z,4.72
2023-07-28T16:37:31.735Z,4.25
2023-07-28T16:39:58.744Z,3.45
2023-07-28T16:42:26.582Z,3.03
2023-07-28T16:44:53.958Z,4.10
2023-07-28T16:47:28.797Z,3.85
2023-07-28T16:49:56.417Z,4.60
2023-07-28T16:52:23.620Z,6.03
2023-07-28T16:54:51.369Z,3.92
2023-07-28T16:57:19.082Z,3.95
2023-07-28T16:59:46.045Z,3.33
2023-07-28T17:02:13.447Z,6.05
2023-07-28T17:04:43.361Z,5.07
2023-07-28T17:07:10.443Z,5.95
2023-07-28T17:09:38.797Z,3.65
2023-07-28T17:12:07.993Z,3.78
2023-07-28T17:14:34.955Z,3.97
2023-07-28T17:17:02.252Z,4.55
2023-07-28T17:19:30.506Z,5.55
2023-07-28T17:22:00.293Z,6.05
2023-07-28T17:24:27.423Z,4.80
2023-07-28T17:26:54.648Z,4.07
2023-07-28T17:29:21.767Z,4.07
2023-07-28T17:31:48.994Z,5.75
2023-07-28T17:34:16.406Z,4.57
2023-07-28T17:36:43.454Z,5.85
2023-07-28T17:39:12.854Z,4.65
2023-07-28T17:41:40.402Z,4.18
2023-07-28T17:44:07.954Z,6.55
2023-07-28T17:46:35.302Z,6.10
2023-07-28T17:49:02.608Z,4.28
2023-07-28T17:51:31.866Z,4.90
2023-07-28T17:53:58.939Z,8.00
2023-07-28T17:56:27.516Z,4.32
2023-07-28T17:58:55.728Z,4.35
2023-07-28T18:04:06.289Z,4.32
2023-07-28T18:06:34.716Z,6.25
2023-07-28T18:09:02.922Z,5.57
2023-07-28T18:14:15.901Z,4.82
2023-07-28T18:16:42.897Z,4.68
2023-07-28T18:19:09.703Z,3.85
2023-07-28T18:21:36.723Z,4.78
2023-07-28T18:24:04.159Z,12.75
2023-07-28T18:26:33.083Z,5.63
2023-07-28T18:29:00.051Z,6.35
2023-07-28T18:31:26.895Z,41.22
2023-07-28T18:33:53.853Z,171.25
2023-07-28T18:36:21.291Z,135.05
2023-07-28T18:38:48.185Z,124.05
2023-07-28T18:41:14.926Z,52.65
2023-07-28T18:43:43.159Z,51.65
2023-07-28T18:46:10.753Z,28.92
2023-07-28T18:48:38.006Z,30.00
2023-07-28T18:51:04.951Z,16.35
2023-07-28T18:53:32.233Z,35.72
2023-07-28T18:55:59.036Z,35.97
2023-07-28T18:58:26.065Z,30.85
2023-07-28T19:00:54.396Z,32.08
2023-07-28T19:03:21.749Z,25.55
2023-07-28T19:05:48.754Z,11.95
2023-07-28T19:08:15.525Z,11.38
2023-07-28T19:10:42.376Z,9.75
2023-07-28T19:13:09.152Z,10.57
2023-07-28T19:15:46.826Z,9.27
2023-07-28T19:18:15.633Z,9.20
2023-07-28T19:20:42.613Z,8.40
2023-07-28T19:23:09.472Z,7.47
2023-07-28T19:25:36.313Z,6.75
2023-07-28T19:28:03.278Z,7.43
2023-07-28T19:30:30.182Z,8.55
2023-07-28T19:32:57.097Z,8.88
2023-07-28T19:35:25.336Z,7.65
2023-07-28T19:37:52.226Z,7.43
2023-07-28T19:40:20.441Z,7.10
2023-07-28T19:42:47.337Z,6.80
2023-07-28T19:45:14.200Z,8.32
2023-07-28T19:47:41.088Z,7.28
2023-07-28T19:50:13.127Z,8.15
2023-07-28T19:52:42.234Z,7.78
2023-07-28T19:55:09.617Z,7.25
2023-07-28T19:57:36.736Z,7.97
2023-07-28T20:00:03.966Z,5.03
2023-07-28T20:02:30.994Z,6.88
2023-07-28T20:04:57.939Z,5.93
2023-07-28T20:07:24.921Z,5.43
2023-07-28T20:09:53.048Z,6.47
2023-07-28T20:12:21.903Z,8.07
2023-07-28T20:14:50.298Z,6.82
2023-07-28T20:17:17.145Z,5.45
2023-07-28T20:19:43.986Z,5.53
2023-07-28T20:22:10.838Z,5.68
2023-07-28T20:24:37.659Z,5.07
2023-07-28T20:27:06.840Z,5.85
2023-07-28T20:29:33.714Z,12.95
2023-07-28T20:32:00.668Z,5.40
2023-07-28T20:34:27.420Z,6.97
2023-07-28T20:36:54.258Z,6.18
2023-07-28T20:39:23.549Z,5.65
2023-07-28T20:41:50.316Z,4.40
2023-07-28T20:44:18.509Z,5.13
2023-07-28T20:46:45.414Z,4.47
2023-07-28T20:49:12.215Z,7.75
2023-07-28T20:51:39.129Z,4.82
2023-07-28T20:54:06.011Z,9.68
2023-07-28T20:56:33.136Z,3.90
2023-07-28T20:59:00.142Z,6.32
2023-07-28T21:01:28.374Z,4.45
2023-07-28T21:03:55.244Z,4.60
2023-07-28T21:06:22.181Z,5.15
2023-07-28T21:08:48.977Z,6.00
2023-07-28T21:11:15.778Z,4.00
2023-07-28T21:13:42.727Z,5.30
2023-07-28T21:16:09.682Z,7.28
2023-07-28T21:18:38.143Z,5.15
2023-07-28T21:21:05.206Z,4.93
2023-07-28T21:23:35.427Z,7.32
2023-07-28T21:26:02.613Z,6.15
2023-07-28T21:28:29.482Z,4.25
2023-07-28T21:30:56.314Z,4.20
2023-07-28T21:33:23.208Z,4.53
2023-07-28T21:35:51.478Z,4.90
2023-07-28T21:38:18.314Z,4.63
2023-07-28T21:40:45.752Z,6.85
2023-07-28T21:43:12.820Z,3.20
2023-07-28T21:45:39.747Z,3.28
2023-07-28T21:48:06.649Z,3.70
2023-07-28T21:50:33.532Z,2.67
2023-07-28T21:53:01.732Z,3.45
2023-07-28T21:55:28.621Z,3.95
2023-07-28T21:57:55.620Z,5.32
2023-07-28T22:00:22.572Z,3.80
2023-07-28T22:02:49.579Z,3.92
2023-07-28T22:05:16.549Z,2.90
2023-07-28T22:07:43.461Z,6.10
2023-07-28T22:10:11.748Z,5.20
2023-07-28T22:12:38.600Z,5.65
2023-07-28T22:15:06.330Z,3.80
2023-07-28T22:17:33.217Z,5.78
2023-07-28T22:20:00.057Z,3.88
2023-07-28T22:22:26.959Z,4.88
2023-07-28T22:24:53.814Z,3.78
2023-07-28T22:27:22.008Z,4.53
2023-07-28T22:29:48.926Z,5.25
2023-07-28T22:32:15.817Z,4.93
2023-07-28T22:34:42.659Z,3.58
2023-07-28T22:37:09.440Z,3.53
2023-07-28T22:39:36.263Z,3.95
2023-07-28T22:42:03.035Z,4.80
2023-07-28T22:44:31.172Z,4.80
2023-07-28T22:46:58.004Z,5.07
2023-07-28T22:49:24.788Z,3.65
2023-07-28T22:51:51.606Z,4.13
2023-07-28T22:54:18.408Z,3.72
2023-07-28T22:56:45.190Z,3.83
2023-07-28T22:59:12.184Z,5.05
2023-07-28T23:01:40.376Z,4.32
2023-07-28T23:04:07.246Z,4.50
2023-07-28T23:06:34.497Z,4.55
2023-07-28T23:09:01.511Z,5.30
2023-07-28T23:11:28.313Z,4.45
2023-07-28T23:13:55.157Z,4.25
2023-07-28T23:16:22.093Z,5.32
2023-07-28T23:18:50.784Z,4.88
2023-07-28T23:21:17.584Z,4.38
2023-07-28T23:23:44.452Z,6.03
2023-07-28T23:26:11.332Z,5.68
2023-07-28T23:28:38.220Z,5.68
2023-07-28T23:31:12.221Z,5.20
2023-07-28T23:33:39.159Z,3.38
2023-07-28T23:36:08.230Z,4.93
2023-07-28T23:38:35.080Z,5.03
2023-07-28T23:41:01.914Z,2.88
2023-07-28T23:43:28.903Z,3.78
2023-07-28T23:45:55.772Z,4.00
2023-07-28T23:48:22.559Z,4.32
2023-07-28T23:50:49.353Z,6.35
2023-07-28T23:53:17.489Z,5.93
2023-07-28T23:55:44.257Z,4.22
2023-07-28T23:58:11.037Z,3.88
